Time;durP1;ratioP1;P1;durP2;ratioP2;P2;SDS_P1;SDS_P2;PMS_P1;PMS_P2;Temp;Humidity;BMP_temperature;BMP_pressure;BME280_temperature;BME280_humidity;BME280_pressure;Samples;Min_cycle;Max_cycle;Signal;HPM_P1;HPM_P2
2022/10/10 00:00:23;;;;;;;12.43;6.00;;;11.70;1.00;;;;;;5088548;28;20594;-53
2022/10/10 00:02:49;;;;;;;12.43;5.97;;;11.70;14.90;;;;;;5089320;28;20400;-53
2022/10/10 00:05:14;;;;;;;14.40;6.50;;;11.60;1.00;;;;;;5088796;28;20432;-53
2022/10/10 00:07:40;;;;;;;12.87;5.73;;;11.60;22.20;;;;;;5089449;28;20842;-53
2022/10/10 00:10:06;;;;;;;12.40;6.05;;;11.70;39.10;;;;;;5086869;28;20402;-55
2022/10/10 00:12:32;;;;;;;13.65;6.05;;;11.70;26.70;;;;;;5085654;28;20390;-53
2022/10/10 00:14:57;;;;;;;10.80;5.70;;;11.70;35.80;;;;;;5089398;28;20378;-53
2022/10/10 00:17:23;;;;;;;12.45;5.97;;;11.80;43.30;;;;;;5088359;28;20427;-53
2022/10/10 00:19:49;;;;;;;14.53;6.70;;;11.80;34.50;;;;;;5089073;28;20410;-53
2022/10/10 00:22:14;;;;;;;14.25;6.68;;;11.90;39.30;;;;;;5088262;28;20378;-53
2022/10/10 00:24:40;;;;;;;11.57;5.57;;;12.00;8.20;;;;;;5089016;28;20404;-53
2022/10/10 00:27:06;;;;;;;14.40;7.60;;;12.00;18.00;;;;;;5089016;28;20465;-55
2022/10/10 00:29:31;;;;;;;12.25;6.22;;;12.00;17.10;;;;;;5088848;28;20405;-53
2022/10/10 00:31:57;;;;;;;13.90;6.10;;;12.00;18.60;;;;;;5088886;28;20410;-52
2022/10/10 00:34:23;;;;;;;13.35;6.57;;;12.00;22.70;;;;;;5088085;28;20384;-53
2022/10/10 00:36:48;;;;;;;14.95;6.30;;;12.10;35.80;;;;;;5089030;28;20498;-53
2022/10/10 00:39:14;;;;;;;16.23;7.00;;;12.20;36.90;;;;;;5087758;28;20410;-53
2022/10/10 00:41:39;;;;;;;12.18;6.55;;;12.20;32.80;;;;;;5089033;28;20901;-53
2022/10/10 00:44:10;;;;;;;12.87;6.80;;;12.20;33.30;;;;;;5088395;28;20390;-55
2022/10/10 00:46:36;;;;;;;13.85;6.88;;;12.40;28.30;;;;;;5086410;28;20386;-53
2022/10/10 00:49:08;;;;;;;14.30;6.40;;;12.40;23.20;;;;;;5088599;28;20872;-53
2022/10/10 00:51:34;;;;;;;15.07;6.72;;;12.50;24.10;;;;;;5089101;28;20370;-53
2022/10/10 00:54:04;;;;;;;13.45;6.65;;;12.30;39.00;;;;;;5088611;28;20386;-53
2022/10/10 00:56:37;;;;;;;13.55;6.63;;;12.30;56.90;;;;;;5088286;28;20382;-53
2022/10/10 00:59:05;;;;;;;15.07;6.35;;;12.40;30.00;;;;;;5088384;28;20451;-54
2022/10/10 01:01:30;;;;;;;14.50;6.60;;;12.40;42.70;;;;;;5092026;28;20402;-53
2022/10/10 01:03:58;;;;;;;14.80;6.77;;;12.40;43.10;;;;;;5092337;28;20374;-53
2022/10/10 01:06:24;;;;;;;12.50;6.45;;;12.50;30.20;;;;;;5091614;28;20382;-53
2022/10/10 01:08:49;;;;;;;14.07;6.20;;;12.60;11.60;;;;;;5092422;28;20390;-53
2022/10/10 01:11:24;;;;;;;13.50;6.30;;;12.60;26.30;;;;;;5088399;28;20382;-53
2022/10/10 01:14:13;;;;;;;13.50;6.50;;;12.60;16.30;;;;;;5092241;28;20378;-53
2022/10/10 01:16:59;;;;;;;14.27;6.75;;;12.60;2.00;;;;;;5076841;28;20527;-53
2022/10/10 01:19:49;;;;;;;12.45;6.40;;;12.70;19.30;;;;;;5089771;28;20405;-53
2022/10/10 01:22:31;;;;;;;13.02;7.03;;;12.80;1.00;;;;;;5090938;28;20838;-53
2022/10/10 01:25:16;;;;;;;13.35;6.60;;;12.80;4.00;;;;;;5089409;28;20406;-53
2022/10/10 01:27:50;;;;;;;14.00;6.70;;;12.80;1.00;;;;;;5090233;28;20405;-53
2022/10/10 01:30:20;;;;;;;12.45;6.60;;;12.70;1.00;;;;;;5088239;28;20382;-53
2022/10/10 01:33:10;;;;;;;11.63;5.95;;;12.80;15.10;;;;;;5092111;28;20941;-53
2022/10/10 01:35:52;;;;;;;13.25;6.65;;;12.80;1.00;;;;;;5089364;28;20381;-53
2022/10/10 01:38:39;;;;;;;14.85;6.90;;;12.70;6.60;;;;;;5088730;28;20370;-52
2022/10/10 01:41:13;;;;;;;13.82;6.80;;;12.80;1.00;;;;;;5090383;28;20374;-53
2022/10/10 01:43:39;;;;;;;12.38;6.50;;;12.70;2.60;;;;;;5089822;28;20390;-52
2022/10/10 01:46:24;;;;;;;14.07;6.70;;;12.70;8.10;;;;;;5091413;28;20856;-53
2022/10/10 01:48:53;;;;;;;12.82;7.18;;;12.70;8.60;;;;;;5090654;28;20461;-53
2022/10/10 01:51:39;;;;;;;13.13;6.70;;;12.70;4.80;;;;;;5088244;28;20427;-53
2022/10/10 01:54:07;;;;;;;12.90;6.78;;;12.70;15.70;;;;;;5090013;28;20405;-53
2022/10/10 01:56:54;;;;;;;11.98;6.88;;;12.70;27.70;;;;;;5091143;28;20382;-53
2022/10/10 01:59:50;;;;;;;12.60;6.80;;;12.80;13.30;;;;;;5088538;28;20406;-53
2022/10/10 02:02:38;;;;;;;12.05;6.38;;;12.80;1.00;;;;;;5090391;28;20488;-53
2022/10/10 02:05:45;;;;;;;15.43;7.05;;;12.80;1.00;;;;;;5089886;28;20454;-53
2022/10/10 02:08:13;;;;;;;14.18;7.05;;;12.80;5.50;;;;;;5089235;28;20889;-54
2022/10/10 02:10:55;;;;;;;13.43;6.78;;;12.70;1.00;;;;;;5090381;28;20514;-53
2022/10/10 02:13:26;;;;;;;15.75;6.50;;;12.70;5.30;;;;;;5090159;28;20804;-53
2022/10/10 02:15:54;;;;;;;13.43;7.30;;;12.70;8.00;;;;;;5072971;28;20453;-54
2022/10/10 02:18:24;;;;;;;15.40;7.30;;;12.70;14.30;;;;;;5090163;28;20386;-53
2022/10/10 02:20:52;;;;;;;12.87;7.27;;;12.60;42.20;;;;;;5090776;28;20389;-53
2022/10/10 02:23:20;;;;;;;13.80;6.67;;;12.50;45.80;;;;;;5087502;28;20382;-53
2022/10/10 02:25:50;;;;;;;14.55;6.95;;;12.50;92.30;;;;;;5090658;28;20465;-52
2022/10/10 02:28:34;;;;;;;15.43;7.65;;;12.50;72.30;;;;;;5086620;28;20874;-54
2022/10/10 02:31:05;;;;;;;17.27;7.22;;;12.60;72.40;;;;;;5087983;28;20483;-53
2022/10/10 02:33:42;;;;;;;15.85;7.50;;;12.70;73.50;;;;;;5089765;28;20412;-53
2022/10/10 02:36:09;;;;;;;13.82;6.90;;;12.70;14.70;;;;;;5090049;28;20827;-55
2022/10/10 02:38:36;;;;;;;13.18;7.10;;;12.60;33.00;;;;;;5090328;28;20410;-53
2022/10/10 02:41:04;;;;;;;14.45;7.70;;;12.60;40.70;;;;;;5090568;28;20848;-53
2022/10/10 02:43:32;;;;;;;15.17;7.67;;;12.70;22.80;;;;;;5089759;28;20375;-53
2022/10/10 02:46:02;;;;;;;14.93;7.57;;;12.70;2.70;;;;;;5088103;28;20377;-53
2022/10/10 02:48:28;;;;;;;14.47;7.60;;;12.70;1.00;;;;;;5089477;28;20633;-53
2022/10/10 02:50:53;;;;;;;15.82;7.75;;;12.60;1.00;;;;;;5090129;28;20895;-53
2022/10/10 02:53:19;;;;;;;15.77;7.80;;;12.60;5.30;;;;;;5089462;28;20427;-53
2022/10/10 02:55:44;;;;;;;17.90;7.40;;;12.50;14.00;;;;;;5090205;28;20381;-52
2022/10/10 02:58:10;;;;;;;15.07;8.10;;;12.40;19.70;;;;;;5089623;28;20385;-55
2022/10/10 03:00:35;;;;;;;16.80;7.90;;;12.40;39.50;;;;;;5089379;28;20917;-53
2022/10/10 03:03:01;;;;;;;17.50;7.77;;;12.40;28.40;;;;;;5090037;28;20393;-53
2022/10/10 03:05:27;;;;;;;15.70;8.07;;;12.30;48.70;;;;;;5089204;28;20369;-53
2022/10/10 03:07:52;;;;;;;15.53;7.00;;;12.20;64.70;;;;;;5090394;28;20731;-53
2022/10/10 03:10:18;;;;;;;16.30;7.70;;;12.10;85.30;;;;;;5089259;28;20381;-52
2022/10/10 03:12:43;;;;;;;19.15;7.85;;;12.10;99.90;;;;;;5089599;28;20389;-53
2022/10/10 03:15:09;;;;;;;18.57;8.50;;;12.10;97.90;;;;;;5089520;28;20385;-55
2022/10/10 03:17:35;;;;;;;14.87;7.37;;;12.20;92.70;;;;;;5089162;28;20820;-52
2022/10/10 03:20:00;;;;;;;12.77;7.18;;;12.20;95.50;;;;;;5071354;28;20755;-53
2022/10/10 03:22:26;;;;;;;16.90;7.50;;;12.10;98.20;;;;;;5088414;28;20461;-53
2022/10/10 03:24:51;;;;;;;17.58;7.82;;;12.00;99.60;;;;;;5089604;28;20390;-53
2022/10/10 03:27:17;;;;;;;20.50;8.00;;;12.10;98.10;;;;;;5088929;28;20378;-53
2022/10/10 03:29:43;;;;;;;16.03;7.67;;;11.90;99.90;;;;;;5089617;28;20382;-53
2022/10/10 03:32:08;;;;;;;14.23;7.72;;;11.90;99.90;;;;;;5089151;28;20416;-55
2022/10/10 03:34:34;;;;;;;15.23;8.07;;;12.00;99.90;;;;;;5089215;28;20382;-52
2022/10/10 03:36:59;;;;;;;18.07;7.70;;;11.80;99.90;;;;;;5089839;28;20381;-52
2022/10/10 03:39:25;;;;;;;16.10;7.38;;;11.90;99.90;;;;;;5070472;28;20418;-53
2022/10/10 03:41:50;;;;;;;18.43;8.00;;;12.00;99.90;;;;;;5089270;28;20414;-53
2022/10/10 03:44:16;;;;;;;16.67;8.03;;;11.90;99.90;;;;;;5088665;28;20721;-53
2022/10/10 03:46:42;;;;;;;15.40;7.70;;;11.90;99.90;;;;;;5089842;28;20395;-52
2022/10/10 03:49:07;;;;;;;14.77;7.93;;;11.90;99.90;;;;;;5090048;28;20897;-54
2022/10/10 03:51:33;;;;;;;16.73;8.30;;;12.00;99.90;;;;;;5089128;28;20370;-53
2022/10/10 03:53:58;;;;;;;15.57;8.07;;;12.00;94.50;;;;;;5089946;28;20884;-53
2022/10/10 03:56:24;;;;;;;15.80;8.50;;;12.00;99.90;;;;;;5089055;28;20459;-53
2022/10/10 03:58:49;;;;;;;16.90;8.25;;;12.00;99.80;;;;;;5082672;28;20410;-53
2022/10/10 04:01:15;;;;;;;16.17;7.93;;;12.00;93.00;;;;;;5082826;28;20398;-53
2022/10/10 04:03:41;;;;;;;16.00;8.57;;;12.00;87.20;;;;;;5105385;28;20739;-52
2022/10/10 04:06:06;;;;;;;17.13;7.85;;;12.00;94.90;;;;;;5087642;28;20401;-54
2022/10/10 04:08:32;;;;;;;14.63;8.20;;;12.00;82.50;;;;;;5087353;28;20482;-54
2022/10/10 04:10:58;;;;;;;16.77;8.40;;;11.90;99.90;;;;;;5089759;28;20481;-53
2022/10/10 04:13:24;;;;;;;16.13;8.10;;;11.80;99.90;;;;;;5088939;28;20855;-53
2022/10/10 04:15:55;;;;;;;18.00;8.23;;;11.70;99.90;;;;;;5089692;28;20385;-53
2022/10/10 04:18:23;;;;;;;17.98;8.60;;;11.70;99.90;;;;;;5088942;28;20483;-53
2022/10/10 04:20:49;;;;;;;16.63;8.30;;;11.70;99.90;;;;;;5088391;28;20431;-52
2022/10/10 04:23:14;;;;;;;16.10;7.63;;;11.70;99.90;;;;;;5088787;28;20390;-52
2022/10/10 04:25:40;;;;;;;15.88;7.85;;;11.70;99.90;;;;;;5089370;28;20377;-52
2022/10/10 04:28:09;;;;;;;19.40;8.40;;;11.70;99.90;;;;;;5089068;28;20396;-53
2022/10/10 04:30:34;;;;;;;14.50;7.60;;;11.60;99.90;;;;;;5087958;28;20386;-53
2022/10/10 04:33:00;;;;;;;15.90;7.70;;;11.60;99.90;;;;;;5105078;28;20716;-52
2022/10/10 04:35:26;;;;;;;17.30;7.43;;;11.60;99.90;;;;;;5091749;28;20485;-53
2022/10/10 04:37:52;;;;;;;16.43;7.80;;;11.50;99.90;;;;;;5093103;28;20376;-53
2022/10/10 04:40:17;;;;;;;16.95;8.20;;;11.50;99.90;;;;;;5092256;28;20414;-56
2022/10/10 04:42:43;;;;;;;18.38;8.70;;;11.50;99.90;;;;;;5093017;28;20417;-53
2022/10/10 04:45:09;;;;;;;16.80;8.63;;;11.60;99.90;;;;;;5101166;28;20402;-53
2022/10/10 04:47:35;;;;;;;16.45;7.93;;;11.60;99.90;;;;;;5092556;28;20873;-53
2022/10/10 04:50:00;;;;;;;18.70;8.00;;;11.60;99.90;;;;;;5092704;28;20374;-52
2022/10/10 04:52:26;;;;;;;14.90;7.65;;;11.60;99.90;;;;;;5090082;28;20729;-52
2022/10/10 04:54:52;;;;;;;15.80;8.10;;;11.50;99.90;;;;;;5092235;28;20392;-53
2022/10/10 04:57:17;;;;;;;17.50;8.20;;;11.60;99.90;;;;;;5091827;28;20385;-53
2022/10/10 04:59:43;;;;;;;15.48;8.27;;;11.60;99.90;;;;;;5074226;28;20493;-53
2022/10/10 05:02:09;;;;;;;18.47;8.70;;;11.60;99.90;;;;;;5073951;28;20424;-53
2022/10/10 05:04:34;;;;;;;19.08;8.82;;;11.60;99.90;;;;;;5091343;28;20936;-53
2022/10/10 05:07:00;;;;;;;16.60;8.30;;;11.50;99.90;;;;;;5088887;28;20422;-53
2022/10/10 05:09:26;;;;;;;15.60;8.13;;;11.60;99.90;;;;;;5091630;28;20735;-52
2022/10/10 05:11:51;;;;;;;15.73;8.07;;;11.60;99.90;;;;;;5091923;28;20465;-53
2022/10/10 05:14:17;;;;;;;15.32;8.38;;;11.70;99.90;;;;;;5092197;28;20753;-52
2022/10/10 05:16:43;;;;;;;15.70;8.20;;;11.80;99.90;;;;;;5097542;28;20453;-53
2022/10/10 05:19:08;;;;;;;19.70;8.77;;;11.60;99.90;;;;;;5091855;28;20410;-53
2022/10/10 05:21:34;;;;;;;18.17;8.10;;;11.60;99.90;;;;;;5078771;28;20383;-53
2022/10/10 05:23:59;;;;;;;13.80;7.40;;;11.70;99.90;;;;;;5075248;28;20406;-53
2022/10/10 05:26:25;;;;;;;16.00;8.43;;;11.70;99.90;;;;;;5091880;28;20452;-53
2022/10/10 05:28:51;;;;;;;16.70;8.25;;;11.70;99.90;;;;;;5091788;28;20388;-53
2022/10/10 05:31:16;;;;;;;19.77;9.43;;;11.90;99.90;;;;;;5091663;28;20410;-53
2022/10/10 05:33:43;;;;;;;16.17;7.70;;;11.90;99.90;;;;;;5092792;28;20547;-53
2022/10/10 05:36:10;;;;;;;14.77;7.90;;;11.90;99.90;;;;;;5092436;28;20370;-54
2022/10/10 05:38:38;;;;;;;16.95;8.23;;;11.90;99.90;;;;;;5091747;28;20416;-53
2022/10/10 05:41:04;;;;;;;14.87;8.13;;;11.90;99.90;;;;;;5092741;28;20381;-53
2022/10/10 05:43:30;;;;;;;16.50;9.00;;;11.90;99.90;;;;;;5091746;28;20464;-53
2022/10/10 05:45:56;;;;;;;15.23;8.02;;;11.90;99.90;;;;;;5091251;28;20465;-53
2022/10/10 05:48:22;;;;;;;19.85;8.63;;;11.90;99.90;;;;;;5092003;28;20374;-53
2022/10/10 05:50:50;;;;;;;22.37;8.03;;;12.00;99.90;;;;;;5092417;28;20380;-53
2022/10/10 05:53:16;;;;;;;14.13;7.67;;;12.00;99.90;;;;;;5091816;28;20481;-53
2022/10/10 05:55:43;;;;;;;14.32;7.78;;;12.10;99.90;;;;;;5092393;28;20534;-53
2022/10/10 05:58:12;;;;;;;16.05;8.68;;;12.10;99.90;;;;;;5092556;28;20411;-53
2022/10/10 06:00:38;;;;;;;16.00;8.00;;;12.10;99.90;;;;;;5091725;28;20760;-53
2022/10/10 06:03:04;;;;;;;20.00;8.77;;;12.20;99.40;;;;;;5090996;28;20532;-53
2022/10/10 06:05:29;;;;;;;16.60;8.40;;;12.20;99.90;;;;;;5082406;28;20543;-53
2022/10/10 06:07:55;;;;;;;17.53;8.90;;;12.30;94.00;;;;;;5092101;28;20440;-52
2022/10/10 06:10:21;;;;;;;17.13;8.50;;;12.40;75.80;;;;;;5090467;28;20458;-53
2022/10/10 06:12:46;;;;;;;21.70;7.83;;;12.50;50.40;;;;;;5091777;28;20390;-52
2022/10/10 06:15:12;;;;;;;16.60;8.27;;;12.50;42.50;;;;;;5091283;28;20381;-53
2022/10/10 06:17:37;;;;;;;17.05;8.18;;;12.60;47.00;;;;;;5091435;28;20386;-53
2022/10/10 06:20:03;;;;;;;18.60;8.20;;;12.80;85.30;;;;;;5091133;28;20437;-54
2022/10/10 06:22:29;;;;;;;15.60;7.63;;;13.30;26.50;;;;;;5073041;28;20870;-54
2022/10/10 06:24:54;;;;;;;16.65;7.47;;;13.80;1.00;;;;;;5091701;28;20469;-54
2022/10/10 06:27:20;;;;;;;17.10;7.63;;;14.50;1.00;;;;;;5106266;28;20890;-54
2022/10/10 06:29:46;;;;;;;14.83;6.63;;;15.60;99.90;;;;;;5091710;28;20382;-54
2022/10/10 06:32:12;;;;;;;14.50;7.00;;;16.60;1.00;;;;;;5090151;28;20394;-54
2022/10/10 06:34:38;;;;;;;14.32;6.80;;;17.40;51.50;;;;;;5091547;28;20390;-55
2022/10/10 06:37:03;;;;;;;13.67;6.50;;;17.50;1.00;;;;;;5090968;28;20378;-54
2022/10/10 06:39:29;;;;;;;16.13;6.90;;;17.90;99.90;;;;;;5090261;28;20763;-53
2022/10/10 06:41:55;;;;;;;19.52;7.35;;;17.70;99.90;;;;;;5091622;28;20381;-54
2022/10/10 06:44:20;;;;;;;14.77;7.07;;;17.10;99.90;;;;;;5090409;28;20440;-54
2022/10/10 06:46:46;;;;;;;15.30;6.80;;;16.50;1.00;;;;;;5090863;28;20886;-54
2022/10/10 06:49:12;;;;;;;14.75;7.22;;;16.60;1.00;;;;;;5090611;28;20382;-56
2022/10/10 06:51:38;;;;;;;15.80;7.70;;;17.00;1.00;;;;;;5090154;28;20772;-53
2022/10/10 06:54:04;;;;;;;17.67;8.50;;;17.20;1.00;;;;;;5090953;28;20382;-53
2022/10/10 06:56:30;;;;;;;13.35;7.28;;;16.70;1.00;;;;;;5089803;28;20878;-53
2022/10/10 06:58:56;;;;;;;15.40;7.80;;;16.30;1.00;;;;;;5090898;28;20401;-53
2022/10/10 07:01:23;;;;;;;17.53;7.67;;;16.00;99.90;;;;;;5089666;28;20967;-54
2022/10/10 07:03:49;;;;;;;15.00;8.00;;;15.80;99.90;;;;;;5090618;28;20422;-54
2022/10/10 07:06:15;;;;;;;16.98;7.30;;;15.90;1.00;;;;;;5090008;28;20464;-53
2022/10/10 07:08:41;;;;;;;16.08;7.80;;;16.20;99.90;;;;;;5091166;28;20378;-53
2022/10/10 07:11:08;;;;;;;14.73;7.40;;;16.20;58.70;;;;;;5091320;28;20455;-53
2022/10/10 07:13:35;;;;;;;16.20;8.40;;;16.10;99.90;;;;;;5090514;28;20409;-54
2022/10/10 07:16:02;;;;;;;16.63;7.60;;;16.20;99.90;;;;;;5090506;28;20372;-53
2022/10/10 07:18:27;;;;;;;17.02;8.10;;;16.20;99.90;;;;;;5089943;28;20465;-54
2022/10/10 07:21:00;;;;;;;14.95;8.07;;;16.00;99.90;;;;;;5090515;28;20544;-53
2022/10/10 07:23:27;;;;;;;14.53;7.70;;;15.80;99.90;;;;;;5089659;28;20454;-54
2022/10/10 07:25:59;;;;;;;18.88;8.27;;;15.90;31.60;;;;;;5090205;28;20390;-54
2022/10/10 07:28:24;;;;;;;14.90;7.37;;;16.00;1.00;;;;;;5090191;28;20378;-54
2022/10/10 07:30:50;;;;;;;14.07;7.40;;;16.20;99.90;;;;;;5090459;28;20727;-54
2022/10/10 07:33:15;;;;;;;14.02;7.53;;;16.10;99.90;;;;;;5089923;28;20389;-53
2022/10/10 07:35:42;;;;;;;15.17;7.87;;;16.40;99.90;;;;;;5090394;28;20838;-54
2022/10/10 07:38:09;;;;;;;16.42;7.72;;;16.80;98.60;;;;;;5089739;28;20378;-53
2022/10/10 07:40:38;;;;;;;19.43;7.60;;;17.00;99.90;;;;;;5089063;28;20393;-54
2022/10/10 07:43:05;;;;;;;16.00;7.57;;;16.90;99.90;;;;;;5105996;28;20394;-53
2022/10/10 07:45:33;;;;;;;19.73;8.20;;;16.70;99.90;;;;;;5089358;28;20378;-54
2022/10/10 07:47:59;;;;;;;14.75;8.05;;;16.30;99.90;;;;;;5089554;28;20389;-54
2022/10/10 07:50:24;;;;;;;16.53;8.00;;;16.30;99.90;;;;;;5088416;28;20435;-54
2022/10/10 07:52:50;;;;;;;12.90;7.30;;;17.80;99.90;;;;;;5088335;28;20401;-54
2022/10/10 07:55:16;;;;;;;18.15;8.30;;;18.90;99.90;;;;;;5088800;28;20378;-54
2022/10/10 07:57:41;;;;;;;18.83;7.50;;;18.50;70.40;;;;;;5089730;28;20385;-54
2022/10/10 08:00:09;;;;;;;21.93;7.90;;;18.90;78.20;;;;;;5089831;28;20404;-54
2022/10/10 08:02:35;;;;;;;16.65;7.35;;;20.20;1.00;;;;;;5089313;28;20390;-54
2022/10/10 08:05:00;;;;;;;13.23;7.40;;;20.70;1.00;;;;;;5089369;28;20383;-54
2022/10/10 08:07:26;;;;;;;15.93;7.72;;;19.70;1.00;;;;;;5086829;28;20386;-54
2022/10/10 08:09:52;;;;;;;16.10;7.88;;;19.20;1.00;;;;;;5092787;28;20785;-54
2022/10/10 08:12:17;;;;;;;14.30;7.00;;;19.00;1.00;;;;;;5107151;28;20839;-54
2022/10/10 08:14:43;;;;;;;16.63;7.73;;;19.20;1.00;;;;;;5094373;28;20382;-54
2022/10/10 08:17:09;;;;;;;15.27;7.90;;;19.40;1.00;;;;;;5093850;28;20381;-54
2022/10/10 08:19:34;;;;;;;14.93;7.18;;;19.50;1.00;;;;;;5093187;28;20399;-54
2022/10/10 08:22:00;;;;;;;14.50;6.37;;;18.90;1.00;;;;;;5093735;28;20851;-54
2022/10/10 08:24:26;;;;;;;13.50;8.00;;;18.40;1.00;;;;;;5092692;28;20374;-54
2022/10/10 08:26:51;;;;;;;16.33;7.90;;;18.20;1.00;;;;;;5093895;28;20389;-54
2022/10/10 08:29:17;;;;;;;13.77;7.25;;;18.00;1.00;;;;;;5093067;28;20378;-54
2022/10/10 08:31:42;;;;;;;14.03;7.67;;;18.10;1.00;;;;;;5093185;28;20410;-54
2022/10/10 08:34:08;;;;;;;14.20;7.70;;;18.40;1.00;;;;;;5093729;28;20831;-54
2022/10/10 08:36:34;;;;;;;15.10;7.27;;;19.10;1.00;;;;;;5093139;28;20371;-55
2022/10/10 08:39:00;;;;;;;13.55;7.40;;;19.70;1.00;;;;;;5092977;28;20743;-55
2022/10/10 08:41:45;;;;;;;13.48;6.40;;;;;;;;;;5092666;28;20370;-55
2022/10/10 08:44:17;;;;;;;14.85;7.60;;;23.20;1.00;;;;;;5093538;28;20374;-55
2022/10/10 08:47:01;;;;;;;12.18;7.20;;;25.30;99.90;;;;;;5093310;28;20382;-55
2022/10/10 08:50:01;;;;;;;15.23;7.80;;;26.50;99.90;;;;;;5092380;28;20378;-55
2022/10/10 08:52:38;;;;;;;14.57;8.23;;;25.60;99.90;;;;;;5091680;28;20443;-55
2022/10/10 08:55:16;;;;;;;15.45;9.25;;;24.70;99.90;;;;;;5092385;28;20397;-54
2022/10/10 08:57:56;;;;;;;13.18;7.50;;;24.20;99.90;;;;;;5093345;28;20413;-54
2022/10/10 09:00:27;;;;;;;12.65;7.05;;;23.30;99.90;;;;;;5092189;28;20405;-54
2022/10/10 09:02:55;;;;;;;13.32;6.97;;;22.60;99.90;;;;;;5092634;28;20512;-54
2022/10/10 09:05:44;;;;;;;12.00;6.60;;;22.20;99.90;;;;;;5093091;28;20469;-54
2022/10/10 09:08:37;;;;;;;11.18;6.78;;;21.70;99.90;;;;;;5092593;28;20837;-55
2022/10/10 09:11:38;;;;;;;13.90;7.10;;;21.20;99.90;;;;;;5091875;28;20413;-54
2022/10/10 09:14:22;;;;;;;11.52;6.43;;;21.10;99.90;;;;;;5087249;28;20704;-54
2022/10/10 09:17:12;;;;;;;13.40;7.10;;;21.30;99.90;;;;;;5093241;28;20374;-54
2022/10/10 09:19:55;;;;;;;15.85;7.55;;;21.80;99.90;;;;;;5091879;28;20420;-54
2022/10/10 09:22:29;;;;;;;14.85;6.85;;;22.20;99.90;;;;;;5091685;28;20443;-55
2022/10/10 09:25:02;;;;;;;13.63;7.35;;;22.40;99.90;;;;;;5092333;28;20401;-54
2022/10/10 09:27:34;;;;;;;13.48;6.78;;;22.10;99.90;;;;;;5091706;28;20926;-55
2022/10/10 09:30:00;;;;;;;13.60;6.85;;;21.90;99.90;;;;;;5092810;28;20378;-54
2022/10/10 09:32:36;;;;;;;14.07;6.47;;;21.60;99.90;;;;;;5090878;28;20420;-54
2022/10/10 09:35:16;;;;;;;12.60;6.88;;;21.60;99.90;;;;;;5092941;28;20471;-55
2022/10/10 09:37:43;;;;;;;12.32;6.80;;;23.00;99.90;;;;;;5092259;28;20382;-55
2022/10/10 09:40:26;;;;;;;11.75;7.15;;;24.90;99.90;;;;;;5092207;28;20398;-55
2022/10/10 09:42:52;;;;;;;12.35;6.22;;;27.50;99.90;;;;;;5075137;28;20385;-55
2022/10/10 09:45:35;;;;;;;13.05;6.03;;;26.90;99.90;;;;;;5091517;28;20700;-55
2022/10/10 09:48:01;;;;;;;12.50;5.65;;;25.90;99.90;;;;;;5091850;28;20397;-55
2022/10/10 09:50:27;;;;;;;12.95;5.70;;;25.40;99.90;;;;;;5091581;28;20855;-55
2022/10/10 09:52:55;;;;;;;12.65;5.93;;;25.50;99.90;;;;;;5092253;28;20766;-55
2022/10/10 09:55:25;;;;;;;13.37;5.50;;;24.90;99.90;;;;;;5091633;28;20370;-55
2022/10/10 09:57:54;;;;;;;11.20;5.00;;;24.30;99.90;;;;;;5091959;28;20460;-55
2022/10/10 10:00:19;;;;;;;14.43;5.80;;;23.90;99.90;;;;;;5091356;28;20504;-55
2022/10/10 10:02:49;;;;;;;10.80;4.80;;;23.60;99.90;;;;;;5092259;28;20477;-54
2022/10/10 10:05:24;;;;;;;9.10;3.90;;;23.10;99.90;;;;;;5090949;28;20373;-56
2022/10/10 10:07:51;;;;;;;8.70;4.40;;;22.90;99.90;;;;;;5091744;28;20371;-55
2022/10/10 10:10:23;;;;;;;10.50;4.00;;;22.90;99.90;;;;;;5091189;28;20477;-57
2022/10/10 10:12:50;;;;;;;10.23;4.10;;;22.90;99.90;;;;;;5091581;28;20374;-55
2022/10/10 10:15:21;;;;;;;9.10;3.53;;;22.90;99.90;;;;;;5091061;28;20385;-57
2022/10/10 10:18:20;;;;;;;11.43;3.70;;;22.70;99.90;;;;;;5092078;28;20366;-55
2022/10/10 10:21:16;;;;;;;8.80;4.10;;;22.50;99.90;;;;;;5091591;28;20402;-54
2022/10/10 10:23:49;;;;;;;11.50;4.10;;;22.70;99.90;;;;;;5090877;28;20393;-55
2022/10/10 10:26:26;;;;;;;9.15;3.30;;;23.70;99.90;;;;;;5091058;28;20366;-63
2022/10/10 10:28:53;;;;;;;7.65;3.40;;;25.30;99.90;;;;;;5091383;28;20382;-55
2022/10/10 10:31:26;;;;;;;8.60;3.10;;;26.80;99.90;;;;;;5090176;28;20876;-55
2022/10/10 10:33:54;;;;;;;10.23;3.20;;;27.50;99.90;;;;;;5091117;28;20711;-55
2022/10/10 10:36:33;;;;;;;10.13;3.88;;;27.00;99.90;;;;;;5091138;28;20780;-55
2022/10/10 10:39:09;;;;;;;8.50;3.10;;;26.40;99.90;;;;;;5091420;28;20414;-55
2022/10/10 10:42:01;;;;;;;7.50;3.50;;;25.80;99.90;;;;;;5071981;28;20390;-55
2022/10/10 10:45:12;;;;;;;10.23;3.70;;;24.90;99.90;;;;;;5090564;28;20429;-55
2022/10/10 10:47:40;;;;;;;11.55;4.70;;;24.40;99.90;;;;;;5090689;28;20381;-55
2022/10/10 10:50:31;;;;;;;9.30;4.30;;;24.40;99.90;;;;;;5090929;28;20374;-55
2022/10/10 10:53:06;;;;;;;11.37;5.40;;;24.50;99.90;;;;;;5090624;28;20382;-54
2022/10/10 10:56:12;;;;;;;13.13;5.17;;;24.60;99.90;;;;;;5071868;28;20425;-55
2022/10/10 10:59:17;;;;;;;9.73;4.70;;;25.90;99.90;;;;;;5090415;28;20379;-55
2022/10/10 11:01:49;;;;;;;10.82;4.40;;;26.90;99.90;;;;;;5076544;28;20744;-55
2022/10/10 11:04:28;;;;;;;13.18;5.65;;;26.60;99.90;;;;;;5090309;28;20382;-57
2022/10/10 11:07:02;;;;;;;10.38;5.38;;;26.80;99.90;;;;;;5091505;28;20453;-55
2022/10/10 11:10:02;;;;;;;11.50;4.97;;;26.60;99.90;;;;;;5090011;28;20382;-55
2022/10/10 11:12:42;;;;;;;12.75;4.90;;;27.10;99.90;;;;;;5003592;28;20440;-55
2022/10/10 11:15:25;;;;;;;10.45;4.85;;;27.30;99.90;;;;;;5090772;28;20424;-55
2022/10/10 11:17:59;;;;;;;11.00;4.60;;;26.70;99.90;;;;;;5090964;28;20475;-55
2022/10/10 11:20:28;;;;;;;11.43;3.80;;;26.10;99.90;;;;;;5089613;28;20736;-55
2022/10/10 11:23:05;;;;;;;10.50;3.85;;;25.70;99.90;;;;;;5090672;28;20425;-55
2022/10/10 11:25:51;;;;;;;7.80;3.60;;;25.50;99.90;;;;;;5089703;28;20866;-55
2022/10/10 11:28:22;;;;;;;9.77;3.90;;;25.00;99.90;;;;;;5089697;28;20755;-55
2022/10/10 11:31:12;;;;;;;8.55;3.50;;;24.60;99.90;;;;;;5090335;28;20480;-55
2022/10/10 11:33:52;;;;;;;11.20;3.63;;;24.60;99.90;;;;;;5088633;28;20458;-55
2022/10/10 11:36:21;;;;;;;10.95;3.63;;;24.90;99.90;;;;;;5089880;28;20366;-57
2022/10/10 11:39:04;;;;;;;10.77;3.60;;;24.80;99.90;;;;;;5089829;28;20393;-55
2022/10/10 11:41:50;;;;;;;8.27;3.72;;;24.80;99.90;;;;;;5089894;28;20473;-55
2022/10/10 11:44:30;;;;;;;9.43;3.35;;;24.70;99.90;;;;;;5089034;28;20697;-55
2022/10/10 11:47:10;;;;;;;9.55;3.60;;;24.80;99.90;;;;;;5090327;28;20389;-55
2022/10/10 11:49:45;;;;;;;8.25;3.40;;;24.90;99.90;;;;;;5089210;28;20389;-54
2022/10/10 11:52:30;;;;;;;9.13;3.85;;;24.80;99.90;;;;;;5088399;28;20417;-55
2022/10/10 11:55:21;;;;;;;10.43;3.00;;;24.70;99.90;;;;;;5089488;28;20673;-55
2022/10/10 11:57:53;;;;;;;8.55;3.15;;;24.60;99.90;;;;;;5088633;28;20870;-55
2022/10/10 12:00:19;;;;;;;11.90;3.03;;;24.60;99.90;;;;;;5088013;28;20456;-55
2022/10/10 12:02:46;;;;;;;8.20;2.80;;;24.40;99.90;;;;;;5089213;28;20378;-55
2022/10/10 12:05:20;;;;;;;7.97;3.10;;;24.40;99.90;;;;;;5087991;28;20381;-55
2022/10/10 12:08:00;;;;;;;11.82;2.95;;;24.40;99.90;;;;;;5089898;28;20402;-55
2022/10/10 12:10:31;;;;;;;10.27;3.20;;;24.60;99.90;;;;;;5087758;28;20747;-55
2022/10/10 12:13:02;;;;;;;10.47;3.00;;;24.70;99.90;;;;;;5089292;28;20374;-55
2022/10/10 12:15:34;;;;;;;9.73;3.00;;;24.80;99.90;;;;;;5089358;28;20366;-55
2022/10/10 12:18:00;;;;;;;10.10;3.20;;;24.80;99.90;;;;;;5090311;28;20381;-55
2022/10/10 12:20:25;;;;;;;7.63;2.90;;;24.70;99.90;;;;;;5088873;28;20406;-55
2022/10/10 12:23:18;;;;;;;12.30;2.70;;;24.70;99.90;;;;;;5071825;28;20389;-55
2022/10/10 12:25:46;;;;;;;8.70;3.08;;;24.50;99.90;;;;;;5089889;28;20796;-55
2022/10/10 12:28:12;;;;;;;11.43;3.20;;;24.60;99.90;;;;;;5088074;28;20473;-55
2022/10/10 12:31:06;;;;;;;8.50;3.30;;;24.50;99.90;;;;;;5088136;28;20492;-55
2022/10/10 12:33:31;;;;;;;8.70;2.83;;;24.40;99.90;;;;;;5088594;28;20378;-55
2022/10/10 12:36:20;;;;;;;8.07;2.80;;;24.50;99.90;;;;;;5089527;28;20382;-55
2022/10/10 12:39:01;;;;;;;9.50;3.50;;;24.30;99.90;;;;;;5088993;28;20739;-55
2022/10/10 12:41:46;;;;;;;9.10;2.90;;;23.90;99.90;;;;;;5089058;28;20378;-55
2022/10/10 12:44:25;;;;;;;10.70;3.40;;;23.80;99.90;;;;;;5089520;28;20370;-54
2022/10/10 12:47:15;;;;;;;13.37;3.60;;;24.00;99.90;;;;;;5089510;28;20963;-55
2022/10/10 12:49:48;;;;;;;8.80;3.80;;;24.10;99.90;;;;;;5089660;28;20374;-55
2022/10/10 12:52:34;;;;;;;9.57;3.08;;;24.30;99.90;;;;;;5089580;28;20449;-55
2022/10/10 12:55:16;;;;;;;13.13;3.55;;;24.50;99.90;;;;;;5090706;28;20370;-55
2022/10/10 12:57:43;;;;;;;9.50;3.40;;;24.80;99.90;;;;;;5093977;28;20362;-55
2022/10/10 13:00:23;;;;;;;8.38;2.90;;;24.70;99.90;;;;;;5093307;28;20416;-55